logo tempoitalia

Diretta Meteo Ayers Rock, Australialunedì 31 agosto ore 14:30

Mappa
Sereno 27 °C Sereno 24 Ore: T.min 11 T.max 27
Ponente Nord-Est Km/h 7.4 Punto di rugiada: 3 °C Umidità: 21% Visibilità: 10 Km
Il sole sorge alle: 06:59 Il sole tramonta alle: 18:33
31 Agosto 2026 14:30 tempo osservato: Sereno Sereno 27 21 1022 vento: Nord NE 7.4
31 Agosto 2026 14:00 tempo osservato: Sereno Sereno 27 21 1022 vento: Nord SO 7.4
31 Agosto 2026 13:30 tempo osservato: Sereno Sereno 26 22 1023 vento: Nord N 9.3
31 Agosto 2026 13:00 tempo osservato: Sereno Sereno 26 22 1023 vento: Nord N 5.5
31 Agosto 2026 12:30 tempo osservato: Sereno Sereno 25 23 1024 vento: Nord N 11.1
31 Agosto 2026 12:00 tempo osservato: Sereno Sereno 24 23 1025 vento: Nord E/NE 13
31 Agosto 2026 11:30 tempo osservato: Sereno Sereno 23 25 1025 vento: Nord E/NE 20.3
31 Agosto 2026 11:00 tempo osservato: Sereno Sereno 23 25 1026 vento: Nord E/NE 22.2
31 Agosto 2026 10:30 tempo osservato: Sereno Sereno 22 26 1026 vento: Nord E 24
31 Agosto 2026 10:00 tempo osservato: Sereno Sereno 21 28 1026 vento: Nord E 25.9
31 Agosto 2026 09:30 tempo osservato: Sereno Sereno 19 32 1026 vento: Nord E 27.8
31 Agosto 2026 09:00 tempo osservato: Sereno Sereno 18 36 1027 vento: Nord E 22.2
31 Agosto 2026 08:30 tempo osservato: Sereno Sereno 16 41 1027 vento: Nord E/SE 18.5
31 Agosto 2026 08:00 tempo osservato: Sereno Sereno 14 47 1026 vento: Nord E/SE 13
31 Agosto 2026 07:30 tempo osservato: Sereno Sereno 12 54 1026 vento: Nord SE 13
31 Agosto 2026 07:00 tempo osservato: Sereno Sereno 12 54 1026 vento: Nord S/SE 13
31 Agosto 2026 06:30 tempo osservato: Sereno Sereno 11 57 1026 vento: Nord S/SE 11.1
31 Agosto 2026 06:00 tempo osservato: Sereno Sereno 12 54 1026 vento: Nord SE 11.1
31 Agosto 2026 05:30 tempo osservato: Sereno Sereno 12 54 1025 vento: Nord SE 9.3
31 Agosto 2026 05:00 tempo osservato: Sereno Sereno 12 54 1025 vento: Nord SE 11.1
31 Agosto 2026 04:30 tempo osservato: Sereno Sereno 12 54 1025 vento: Nord SE 9.3
31 Agosto 2026 04:00 tempo osservato: Sereno Sereno 13 50 1025 vento: Nord SE 11.1
31 Agosto 2026 03:30 tempo osservato: Sereno Sereno 13 50 1025 vento: Nord SE 9.3
31 Agosto 2026 03:00 tempo osservato: Sereno Sereno 13 50 1026 vento: Nord SE 9.3
31 Agosto 2026 02:30 tempo osservato: Sereno Sereno 14 47 1026 vento: Nord SE 11.1
31 Agosto 2026 02:00 tempo osservato: Sereno Sereno 15 44 1026 vento: Nord E/SE 11.1
31 Agosto 2026 01:30 tempo osservato: Sereno Sereno 16 41 1026 vento: Nord E/SE 13
31 Agosto 2026 01:00 tempo osservato: Sereno Sereno 16 41 1026 vento: Nord E/SE 13
31 Agosto 2026 00:30 tempo osservato: Sereno Sereno 17 39 1026 vento: Nord E/SE 14.8
31 Agosto 2026 00:00 tempo osservato: Sereno Sereno 17 39 1026 vento: Nord E/SE 14.8
30 Agosto 2026 23:30 tempo osservato: Sereno Sereno 17 39 1026 vento: Nord E 13
30 Agosto 2026 23:00 tempo osservato: Sereno Sereno 18 36 1026 vento: Nord E/SE 13
30 Agosto 2026 22:30 tempo osservato: Sereno Sereno 19 34 1026 vento: Nord E/SE 13
30 Agosto 2026 22:00 tempo osservato: Sereno Sereno 19 34 1025 vento: Nord E 16.7
30 Agosto 2026 21:30 tempo osservato: Sereno Sereno 19 37 1025 vento: Nord E/SE 14.8
30 Agosto 2026 21:00 tempo osservato: Sereno Sereno 19 37 1025 vento: Nord E/SE 11.1
30 Agosto 2026 20:30 tempo osservato: Sereno Sereno 20 37 1024 vento: Nord E/SE 11.1
30 Agosto 2026 20:00 tempo osservato: Sereno Sereno 21 35 1024 vento: Nord SE 13
30 Agosto 2026 19:30 tempo osservato: Sereno Sereno 21 32 1024 vento: Nord SE 11.1
30 Agosto 2026 19:00 tempo osservato: Sereno Sereno 22 32 1023 vento: Nord SE 11.1
30 Agosto 2026 18:30 tempo osservato: Sereno Sereno 24 27 1023 vento: Nord E/SE 13
30 Agosto 2026 18:00 tempo osservato: Sereno Sereno 25 25 1023 vento: Nord E/SE 14.8
30 Agosto 2026 17:30 tempo osservato: Sereno Sereno 26 24 1023 vento: Nord E/SE 20.3
30 Agosto 2026 17:00 tempo osservato: Sereno Sereno 26 24 1022 vento: Nord E 14.8
30 Agosto 2026 16:30 tempo osservato: Sereno Sereno 26 24 1022 vento: Nord S 7.4
30 Agosto 2026 16:00 tempo osservato: Sereno Sereno 26 24 1023 vento: Nord E/NE 14.8
30 Agosto 2026 15:30 tempo osservato: Sereno Sereno 26 24 1023 vento: Nord E 16.7